Time;durP1;ratioP1;P1;durP2;ratioP2;P2;SDS_P1;SDS_P2;PMS_P1;PMS_P2;Temp;Humidity;BMP_temperature;BMP_pressure;BME280_temperature;BME280_humidity;BME280_pressure;Samples;Min_cycle;Max_cycle;Signal;HPM_P1;HPM_P2
2023/03/03 00:01:28;;;;;;;84.40;28.50;;;;;;;-1.49;85.37;101313.91;111154;1210;98952;-57
2023/03/03 00:03:53;;;;;;;102.30;32.70;;;;;;;-1.49;85.46;101308.81;111046;1206;139003;-58
2023/03/03 00:06:19;;;;;;;84.50;29.30;;;;;;;-1.49;85.43;101309.88;111152;1206;99005;-57
2023/03/03 00:08:45;;;;;;;81.40;27.40;;;;;;;-1.51;85.54;101307.05;111054;1207;99003;-58
2023/03/03 00:11:11;;;;;;;90.80;29.40;;;;;;;-1.50;85.48;101308.30;111054;1205;138747;-58
2023/03/03 00:13:49;;;;;;;87.60;29.10;;;;;;;-1.49;85.69;101308.65;111051;1208;99088;-58
2023/03/03 00:16:30;;;;;;;76.00;26.30;;;;;;;-1.52;85.69;101308.27;111069;1206;138814;-58
2023/03/03 00:18:56;;;;;;;;;;;;;;;-1.53;85.63;101310.35;111138;1208;107675;-58
2023/03/03 00:21:25;;;;;;;88.30;28.70;;;;;;;-1.53;85.84;101308.41;111017;1206;127485;-56
2023/03/03 00:23:51;;;;;;;81.60;24.80;;;;;;;-1.52;85.79;101310.02;111092;1206;99415;-58
2023/03/03 00:26:37;;;;;;;72.30;25.40;;;;;;;-1.54;85.60;101310.14;111143;1209;99037;-58
2023/03/03 00:29:25;;;;;;;69.70;24.10;;;;;;;-1.61;85.67;101307.23;111033;1206;138816;-58
2023/03/03 00:31:51;;;;;;;78.00;25.40;;;;;;;-1.73;85.74;101308.43;111080;1208;107461;-58
2023/03/03 00:34:16;;;;;;;75.90;25.40;;;;;;;-1.76;85.92;101302.42;110953;1208;139771;-58
2023/03/03 00:36:41;;;;;;;97.40;28.00;;;;;;;-1.74;85.99;101300.02;111156;1208;98893;-58
2023/03/03 00:39:22;;;;;;;83.80;26.40;;;;;;;-1.76;86.04;101297.34;111027;1208;139488;-58
2023/03/03 00:41:48;;;;;;;67.70;23.10;;;;;;;-1.80;86.08;101297.63;111104;1206;107457;-58
2023/03/03 00:44:41;;;;;;;71.40;24.40;;;;;;;-1.86;85.86;101301.19;111050;1206;98838;-59
2023/03/03 00:47:32;;;;;;;81.80;26.30;;;;;;;-1.94;85.92;101298.25;110987;1206;139168;-57
2023/03/03 00:50:06;;;;;;;69.50;20.70;;;;;;;-1.94;85.90;101295.64;111068;1210;116957;-58
2023/03/03 00:52:38;;;;;;;84.70;27.10;;;;;;;-1.95;86.20;101304.54;110941;1209;139627;-58
2023/03/03 00:55:06;;;;;;;70.10;24.50;;;;;;;-1.97;86.19;101306.77;110944;1210;108402;-57
2023/03/03 00:57:31;;;;;;;77.90;26.60;;;;;;;-1.99;86.27;101307.27;111018;1210;139674;-59
2023/03/03 00:59:57;;;;;;;78.80;24.40;;;;;;;-2.00;86.16;101305.50;111040;1208;99042;-57
2023/03/03 01:02:22;;;;;;;78.10;25.40;;;;;;;-2.01;86.21;101294.45;111196;1206;100407;-59
2023/03/03 01:04:51;;;;;;;75.20;24.90;;;;;;;-1.99;86.52;101292.21;110957;1206;139576;-57
2023/03/03 01:07:17;;;;;;;67.30;22.90;;;;;;;-2.01;86.42;101286.39;111206;1208;99127;-59
2023/03/03 01:09:43;;;;;;;83.90;27.00;;;;;;;-2.04;86.46;101283.88;111045;1210;140119;-58
2023/03/03 01:12:09;;;;;;;89.50;26.50;;;;;;;-2.04;86.62;101287.74;111170;1208;99125;-57
2023/03/03 01:14:34;;;;;;;71.30;23.10;;;;;;;-2.02;86.78;101282.17;111019;1206;106781;-57
2023/03/03 01:17:00;;;;;;;63.10;22.00;;;;;;;-2.01;86.55;101288.14;111006;1207;139842;-58
2023/03/03 01:19:25;;;;;;;71.60;23.30;;;;;;;-2.02;86.53;101284.81;111177;1210;99035;-57
2023/03/03 01:21:50;;;;;;;69.80;21.80;;;;;;;-2.01;86.68;101281.48;110987;1206;140280;-57
2023/03/03 01:24:16;;;;;;;68.00;23.10;;;;;;;-2.05;86.97;101281.77;111143;1221;100486;-57
2023/03/03 01:26:41;;;;;;;57.60;20.10;;;;;;;-2.07;86.72;101270.35;111130;1208;99029;-57
2023/03/03 01:29:06;;;;;;;79.70;23.70;;;;;;;-2.08;86.72;101274.88;110950;1208;139751;-55
2023/03/03 01:31:32;;;;;;;78.10;23.90;;;;;;;-2.07;86.87;101269.84;111233;1221;103035;-56
2023/03/03 01:33:57;;;;;;;74.50;22.80;;;;;;;-2.05;86.88;101271.61;110964;1208;140663;-57
2023/03/03 01:36:24;;;;;;;69.40;22.10;;;;;;;-2.06;86.95;101273.70;111205;1206;98807;-57
2023/03/03 01:38:50;;;;;;;63.50;21.20;;;;;;;-2.07;86.90;101262.65;111078;1212;140686;-58
2023/03/03 01:41:15;;;;;;;60.10;20.80;;;;;;;-2.10;87.12;101265.40;111089;1208;99009;-58
2023/03/03 01:43:46;;;;;;;58.70;17.60;;;;;;;-2.14;87.01;101260.95;111213;1208;98998;-57
2023/03/03 01:46:28;;;;;;;59.50;21.70;;;;;;;-2.13;87.12;101253.09;111065;1208;140043;-58
2023/03/03 01:49:33;;;;;;;60.40;20.60;;;;;;;-2.11;87.04;101257.49;111083;1208;100415;-57
2023/03/03 01:52:01;;;;;;;46.30;15.60;;;;;;;-2.11;87.57;101248.74;111016;1208;140671;-56
2023/03/03 01:54:32;;;;;;;55.00;18.80;;;;;;;-2.14;87.02;101246.23;111101;1209;97897;-58
2023/03/03 01:57:01;;;;;;;63.70;20.80;;;;;;;-2.18;87.07;101249.67;110994;1207;140542;-57
2023/03/03 01:59:32;;;;;;;42.50;16.10;;;;;;;-2.23;87.31;101246.60;111250;1208;112094;-58
2023/03/03 02:01:57;;;;;;;45.20;15.50;;;;;;;-2.30;87.26;101242.62;111125;1209;101338;-56
2023/03/03 02:04:25;;;;;;;51.70;18.70;;;;;;;-2.36;87.39;101248.80;110953;1206;140094;-58
2023/03/03 02:06:56;;;;;;;35.90;13.30;;;;;;;-2.40;87.55;101254.69;111131;1215;98993;-57
2023/03/03 02:09:32;;;;;;;44.10;16.40;;;;;;;-2.44;87.37;101260.90;111014;1208;140056;-58
2023/03/03 02:12:02;;;;;;;42.80;16.80;;;;;;;-2.52;87.51;101258.30;111144;1206;114188;-57
2023/03/03 02:14:28;;;;;;;47.20;18.40;;;;;;;-2.52;88.10;101251.30;111193;1209;100014;-58
2023/03/03 02:16:53;;;;;;;52.00;16.80;;;;;;;-2.50;87.75;101254.84;110996;1208;141395;-59
2023/03/03 02:19:34;;;;;;;50.20;17.10;;;;;;;-2.48;88.21;101264.34;111169;1208;99137;-58
2023/03/03 02:22:03;;;;;;;54.30;19.40;;;;;;;-2.45;87.96;101270.17;110988;1209;140087;-58
2023/03/03 02:24:37;;;;;;;56.70;19.80;;;;;;;-2.44;88.24;101275.26;111185;1208;99015;-58
2023/03/03 02:27:03;;;;;;;56.30;16.50;;;;;;;-2.40;88.30;101278.84;111060;1207;139737;-58
2023/03/03 02:29:28;;;;;;;53.90;18.80;;;;;;;-2.38;88.04;101278.88;111118;1207;99203;-57
2023/03/03 02:31:53;;;;;;;54.00;18.10;;;;;;;-2.36;88.22;101276.65;111201;1209;99012;-57
2023/03/03 02:34:18;;;;;;;56.20;18.80;;;;;;;-2.35;88.43;101264.41;110992;1206;141142;-56
2023/03/03 02:36:44;;;;;;;54.60;19.10;;;;;;;-2.33;88.33;101258.14;110951;1211;100977;-56
2023/03/03 02:39:15;;;;;;;58.10;18.70;;;;;;;-2.34;88.27;101258.31;110872;1212;139739;-55
2023/03/03 02:42:11;;;;;;;54.60;18.60;;;;;;;-2.32;88.40;101263.42;111133;1209;112926;-57
2023/03/03 02:44:37;;;;;;;64.60;18.70;;;;;;;-2.31;88.79;101256.61;111137;1208;100080;-57
2023/03/03 02:47:03;;;;;;;55.50;18.50;;;;;;;-2.32;88.62;101266.91;110931;1209;140512;-56
2023/03/03 02:49:32;;;;;;;50.10;16.00;;;;;;;-2.27;88.76;101282.75;111196;1208;98986;-57
2023/03/03 02:51:58;;;;;;;57.90;19.40;;;;;;;-2.25;88.59;101282.10;110950;1208;140867;-57
2023/03/03 02:54:26;;;;;;;46.50;15.30;;;;;;;-2.22;88.74;101283.38;111072;1208;99137;-57
2023/03/03 02:56:52;;;;;;;36.50;13.40;;;;;;;-2.24;88.67;101276.16;111037;1206;139691;-57
2023/03/03 02:59:18;;;;;;;44.30;15.60;;;;;;;-2.32;88.54;101276.89;111159;1209;98950;-57
2023/03/03 03:01:43;;;;;;;44.60;14.30;;;;;;;-2.31;88.61;101275.17;111166;1208;101862;-57
2023/03/03 03:04:12;;;;;;;41.90;15.40;;;;;;;-2.30;88.78;101263.63;111078;1208;140056;-57
2023/03/03 03:06:38;;;;;;;44.80;15.80;;;;;;;-2.31;88.51;101262.91;111141;1208;106608;-57
2023/03/03 03:09:05;;;;;;;47.20;16.40;;;;;;;-2.33;88.83;101269.36;111017;1206;140374;-57
2023/03/03 03:11:31;;;;;;;38.40;12.90;;;;;;;-2.32;89.09;101280.41;111102;1212;99709;-57
2023/03/03 03:13:56;;;;;;;42.10;14.40;;;;;;;-2.31;89.01;101285.33;111053;1206;98927;-58
2023/03/03 03:16:22;;;;;;;42.80;14.40;;;;;;;-2.32;89.09;101273.23;110958;1209;140446;-57
2023/03/03 03:18:49;;;;;;;49.00;14.00;;;;;;;-2.33;88.80;101274.79;111012;1211;98980;-58
2023/03/03 03:21:15;;;;;;;30.00;11.80;;;;;;;-2.32;89.12;101269.89;111027;1207;140647;-58
2023/03/03 03:23:41;;;;;;;31.10;11.50;;;;;;;-2.38;88.94;101270.13;111094;1206;100343;-59
2023/03/03 03:26:07;;;;;;;34.60;13.30;;;;;;;-2.47;88.79;101266.29;111114;1212;98983;-60
2023/03/03 03:28:32;;;;;;;39.40;13.50;;;;;;;-2.48;89.09;101258.04;111052;1206;141080;-57
2023/03/03 03:30:58;;;;;;;34.30;13.20;;;;;;;-2.48;89.10;101252.63;111147;1206;116161;-57
2023/03/03 03:33:23;;;;;;;30.90;10.00;;;;;;;-2.51;89.21;101256.58;110993;1208;141223;-56
2023/03/03 03:35:49;;;;;;;21.90;9.40;;;;;;;-2.53;89.20;101254.95;111147;1206;98918;-56
2023/03/03 03:38:15;;;;;;;32.10;12.60;;;;;;;-2.56;89.29;101249.48;111144;1209;99015;-57
2023/03/03 03:40:40;;;;;;;33.50;12.80;;;;;;;-2.56;89.14;101251.06;110980;1206;139047;-57
2023/03/03 03:43:06;;;;;;;31.90;12.00;;;;;;;-2.54;89.59;101247.59;111139;1219;98993;-56
2023/03/03 03:45:32;;;;;;;39.90;14.10;;;;;;;-2.52;89.25;101255.33;110979;1209;139034;-56
2023/03/03 03:47:57;;;;;;;43.30;14.90;;;;;;;-2.49;89.69;101253.30;111154;1209;98977;-57
2023/03/03 03:50:22;;;;;;;46.80;15.30;;;;;;;-2.48;89.69;101255.59;111146;1206;98935;-58
2023/03/03 03:52:49;;;;;;;34.10;11.90;;;;;;;-2.46;89.56;101249.86;110989;1206;139628;-57
2023/03/03 03:55:15;;;;;;;34.30;11.60;;;;;;;-2.47;89.67;101243.02;111238;1209;99025;-57
2023/03/03 03:57:41;;;;;;;42.20;15.70;;;;;;;-2.47;89.52;101244.06;110977;1208;139408;-56
2023/03/03 04:00:08;;;;;;;41.80;14.80;;;;;;;-2.48;89.66;101241.41;111066;1206;98933;-57
2023/03/03 04:02:35;;;;;;;48.00;16.20;;;;;;;-2.47;89.67;101241.60;110983;1212;99092;-58
2023/03/03 04:05:00;;;;;;;45.60;16.30;;;;;;;-2.45;89.67;101245.15;111045;1206;139960;-58
2023/03/03 04:07:26;;;;;;;41.70;14.50;;;;;;;-2.43;89.95;101246.59;111219;1208;99031;-58
2023/03/03 04:09:51;;;;;;;57.90;16.80;;;;;;;-2.44;89.93;101242.02;111008;1208;139068;-56
2023/03/03 04:12:16;;;;;;;42.50;15.30;;;;;;;-2.47;90.14;101242.14;111131;1213;98931;-58
2023/03/03 04:14:42;;;;;;;43.40;14.60;;;;;;;-2.48;90.16;101234.77;111137;1209;99021;-58
2023/03/03 04:17:07;;;;;;;43.50;15.60;;;;;;;-2.49;89.75;101232.29;111018;1208;139715;-58
2023/03/03 04:19:32;;;;;;;46.90;17.00;;;;;;;-2.48;89.91;101230.05;111119;1211;99039;-57
2023/03/03 04:21:57;;;;;;;50.20;14.80;;;;;;;-2.46;89.97;101226.40;111013;1206;140322;-58
2023/03/03 04:24:23;;;;;;;42.90;15.90;;;;;;;-2.44;90.14;101228.55;111169;1206;98916;-57
2023/03/03 04:26:48;;;;;;;41.00;14.30;;;;;;;-2.42;90.06;101225.24;111013;1209;140964;-60
2023/03/03 04:29:13;;;;;;;48.30;15.20;;;;;;;-2.44;90.01;101222.59;111279;1205;99062;-58
2023/03/03 04:31:38;;;;;;;40.30;13.10;;;;;;;-2.44;90.31;101223.45;111231;1209;99015;-59
2023/03/03 04:34:04;;;;;;;43.10;14.70;;;;;;;-2.44;90.23;101219.27;110988;1209;139101;-59
2023/03/03 04:36:29;;;;;;;42.30;13.40;;;;;;;-2.45;90.15;101217.15;111200;1209;99031;-57
2023/03/03 04:38:55;;;;;;;49.40;14.30;;;;;;;-2.46;89.96;101211.53;110978;1208;139228;-60
2023/03/03 04:41:20;;;;;;;53.90;17.30;;;;;;;-2.45;90.08;101211.71;111106;1206;98926;-59
2023/03/03 04:43:45;;;;;;;38.60;13.80;;;;;;;-2.46;90.14;101209.96;111094;1209;98996;-59
2023/03/03 04:46:10;;;;;;;44.80;14.20;;;;;;;-2.45;90.16;101210.66;111003;1206;139271;-57
2023/03/03 04:48:37;;;;;;;39.10;13.80;;;;;;;-2.45;89.93;101207.88;111176;1206;98884;-59
2023/03/03 04:51:03;;;;;;;39.70;13.00;;;;;;;-2.46;90.22;101218.35;111085;1206;139264;-60
2023/03/03 04:53:28;;;;;;;34.50;12.20;;;;;;;-2.53;90.01;101211.58;111162;1209;99064;-59
2023/03/03 04:55:53;;;;;;;35.20;12.90;;;;;;;-2.59;90.24;101211.11;111143;1206;99036;-59
2023/03/03 04:58:20;;;;;;;47.50;15.40;;;;;;;-2.62;90.19;101211.61;111006;1210;138840;-57
2023/03/03 05:00:46;;;;;;;40.60;14.00;;;;;;;-2.63;90.33;101215.78;111107;1206;98958;-57
2023/03/03 05:03:12;;;;;;;42.10;13.50;;;;;;;-2.63;90.29;101222.27;111157;1206;140214;-57
2023/03/03 05:05:39;;;;;;;36.40;12.90;;;;;;;-2.64;90.76;101220.84;111149;1208;99054;-58
2023/03/03 05:08:05;;;;;;;41.20;14.00;;;;;;;-2.66;90.56;101218.54;111147;1208;98900;-58
2023/03/03 05:10:30;;;;;;;41.50;13.70;;;;;;;-2.64;90.82;101220.67;111075;1208;140792;-57
2023/03/03 05:12:55;;;;;;;43.80;14.70;;;;;;;-2.64;90.79;101217.35;111172;1209;99513;-58
2023/03/03 05:15:21;;;;;;;49.30;16.50;;;;;;;-2.63;90.90;101215.27;111018;1208;140987;-56
2023/03/03 05:17:46;;;;;;;43.90;15.60;;;;;;;-2.60;90.90;101215.14;111146;1206;99037;-59
2023/03/03 05:20:12;;;;;;;46.50;15.80;;;;;;;-2.58;90.73;101216.03;111228;1208;99110;-58
2023/03/03 05:22:38;;;;;;;50.90;17.10;;;;;;;-2.54;90.94;101214.70;111011;1208;140839;-58
2023/03/03 05:25:04;;;;;;;47.40;16.00;;;;;;;-2.51;91.32;101207.92;111233;1206;98938;-57
2023/03/03 05:27:30;;;;;;;54.40;16.40;;;;;;;-2.50;90.83;101204.63;110938;1208;142083;-57
2023/03/03 05:29:55;;;;;;;61.00;18.50;;;;;;;-2.51;90.95;101209.16;111231;1206;98927;-58
2023/03/03 05:32:21;;;;;;;47.10;15.80;;;;;;;-2.52;90.93;101214.91;111151;1209;99002;-58
2023/03/03 05:34:46;;;;;;;36.60;11.90;;;;;;;-2.54;90.98;101219.08;111039;1208;141179;-56
2023/03/03 05:37:12;;;;;;;45.90;15.30;;;;;;;-2.55;90.86;101221.16;111147;1208;97992;-59
2023/03/03 05:39:37;;;;;;;55.40;16.60;;;;;;;-2.53;91.26;101221.90;110986;1208;141085;-59
2023/03/03 05:42:03;;;;;;;50.30;14.90;;;;;;;-2.51;91.22;101216.87;110882;1212;99071;-59
2023/03/03 05:44:28;;;;;;;43.80;13.70;;;;;;;-2.49;91.18;101222.14;111033;1218;99052;-58
2023/03/03 05:46:55;;;;;;;43.40;14.90;;;;;;;-2.48;91.32;101237.05;110809;1212;138934;-57
2023/03/03 05:49:20;;;;;;;48.90;16.30;;;;;;;-2.46;91.10;101243.02;110919;1210;98937;-58
2023/03/03 05:51:46;;;;;;;38.40;13.60;;;;;;;-2.44;91.21;101247.09;110768;1206;140778;-59
2023/03/03 05:54:11;;;;;;;36.20;13.20;;;;;;;-2.42;91.31;101254.82;110980;1206;112730;-58
2023/03/03 05:56:36;;;;;;;43.30;13.70;;;;;;;-2.44;91.25;101264.41;110966;1208;99008;-58
2023/03/03 05:59:02;;;;;;;34.70;12.50;;;;;;;-2.46;91.39;101273.46;110842;1210;140495;-59
2023/03/03 06:01:28;;;;;;;28.00;10.90;;;;;;;-2.47;91.38;101285.35;110877;1218;98725;-59
2023/03/03 06:03:53;;;;;;;32.00;9.60;;;;;;;-2.52;91.41;101285.95;110757;1211;139910;-58
2023/03/03 06:06:19;;;;;;;30.40;11.20;;;;;;;-2.57;91.81;101284.45;110961;1212;98933;-58
2023/03/03 06:08:44;;;;;;;41.50;13.50;;;;;;;-2.60;91.82;101269.36;110867;1212;98964;-58
2023/03/03 06:11:11;;;;;;;42.40;14.80;;;;;;;-2.59;92.08;101245.23;110834;1206;140022;-57
2023/03/03 06:13:37;;;;;;;24.50;9.40;;;;;;;-2.57;91.74;101245.77;110886;1212;100148;-58
2023/03/03 06:16:02;;;;;;;32.00;10.60;;;;;;;-2.60;91.87;101239.27;110819;1211;141021;-57
2023/03/03 06:18:27;;;;;;;29.60;10.80;;;;;;;-2.64;91.80;101229.07;110984;1206;100029;-58
2023/03/03 06:20:54;;;;;;;29.20;11.40;;;;;;;-2.63;91.84;101245.52;110782;1211;140383;-58
2023/03/03 06:23:20;;;;;;;39.90;12.70;;;;;;;-2.63;91.98;101249.38;113206;1206;98081;-58
2023/03/03 06:25:46;;;;;;;29.90;11.00;;;;;;;-2.62;92.07;101246.95;113243;1206;96834;-59
2023/03/03 06:28:12;;;;;;;35.20;11.60;;;;;;;-2.62;92.04;101252.73;112258;1209;139235;-58
2023/03/03 06:30:37;;;;;;;28.40;10.30;;;;;;;-2.62;92.21;101258.48;110856;1206;99099;-58
2023/03/03 06:33:03;;;;;;;37.60;12.00;;;;;;;-2.62;92.30;101264.80;110819;1212;139487;-58
2023/03/03 06:35:29;;;;;;;28.40;11.90;;;;;;;-2.60;92.32;101266.57;110776;1212;99088;-58
2023/03/03 06:37:54;;;;;;;30.60;12.00;;;;;;;-2.56;92.38;101265.92;111181;1206;99318;-59
2023/03/03 06:40:19;;;;;;;34.30;11.80;;;;;;;-2.55;92.61;101271.55;110860;1209;142807;-58
2023/03/03 06:42:44;;;;;;;32.00;11.10;;;;;;;-2.53;92.50;101266.16;110931;1206;98999;-58
2023/03/03 06:45:10;;;;;;;28.60;10.50;;;;;;;-2.52;92.37;101265.14;110829;1206;139058;-58
2023/03/03 06:47:36;;;;;;;38.70;12.50;;;;;;;-2.50;92.67;101264.11;110975;1209;113487;-57
2023/03/03 06:50:01;;;;;;;39.70;12.80;;;;;;;-2.47;92.46;101267.51;110945;1206;98947;-58
2023/03/03 06:52:27;;;;;;;31.60;11.50;;;;;;;-2.46;92.68;101264.02;110760;1212;139015;-58
2023/03/03 06:54:54;;;;;;;33.60;11.60;;;;;;;-2.44;92.41;101264.05;110814;1212;99048;-58
2023/03/03 06:57:32;;;;;;;37.80;13.70;;;;;;;-2.43;92.62;101262.85;110696;1212;139843;-58
2023/03/03 07:00:13;;;;;;;35.50;12.70;;;;;;;-2.44;92.63;101261.79;110771;1210;100095;-58
2023/03/03 07:02:39;;;;;;;28.20;9.70;;;;;;;-2.42;92.61;101269.01;113210;1206;108155;-58
2023/03/03 07:05:10;;;;;;;29.00;9.80;;;;;;;-2.40;92.56;101267.64;113097;1206;138492;-58
2023/03/03 07:07:35;;;;;;;28.70;11.30;;;;;;;-2.44;92.79;101268.42;113150;1206;97085;-59
2023/03/03 07:10:19;;;;;;;28.80;9.60;;;;;;;-2.48;92.92;101275.02;110902;1212;139584;-58
2023/03/03 07:12:44;;;;;;;25.10;9.40;;;;;;;-2.47;93.08;101274.67;111012;1206;99867;-60
2023/03/03 07:15:21;;;;;;;30.40;12.00;;;;;;;-2.48;92.87;101265.56;110789;1206;139566;-60
2023/03/03 07:17:54;;;;;;;30.40;11.50;;;;;;;-2.45;93.01;101263.69;110879;1206;98948;-59
2023/03/03 07:20:23;;;;;;;23.50;9.50;;;;;;;-2.40;93.37;101263.45;110890;1206;99557;-59
2023/03/03 07:22:49;;;;;;;28.70;10.90;;;;;;;-2.38;92.99;101274.50;110767;1212;139271;-60
2023/03/03 07:25:34;;;;;;;23.30;9.60;;;;;;;-2.38;92.82;101278.89;110997;1212;98945;-60
2023/03/03 07:28:19;;;;;;;26.00;9.70;;;;;;;-2.38;93.08;101280.64;110865;1211;138732;-58
2023/03/03 07:30:44;;;;;;;30.00;10.50;;;;;;;-2.40;92.98;101284.08;110952;1206;98915;-59
2023/03/03 07:33:33;;;;;;;26.80;10.30;;;;;;;-2.38;93.15;101283.08;111014;1208;139614;-59
2023/03/03 07:36:01;;;;;;;21.60;8.90;;;;;;;-2.31;93.51;101284.62;111118;1208;113136;-60
2023/03/03 07:38:33;;;;;;;28.50;10.90;;;;;;;-2.28;93.41;101284.15;111156;1205;100241;-59
2023/03/03 07:41:01;;;;;;;24.10;10.20;;;;;;;-2.24;93.55;101292.62;110991;1209;139631;-59
2023/03/03 07:43:42;;;;;;;33.70;11.60;;;;;;;-2.23;93.65;101294.57;111073;1222;99766;-59
2023/03/03 07:46:10;;;;;;;29.60;10.40;;;;;;;-2.19;93.64;101302.16;110967;1208;139875;-59
2023/03/03 07:48:39;;;;;;;18.60;7.90;;;;;;;-2.18;93.59;101303.41;111056;1208;112599;-59
2023/03/03 07:51:13;;;;;;;30.30;10.20;;;;;;;-2.22;93.50;101306.83;110990;1208;139177;-60
2023/03/03 07:53:39;;;;;;;27.40;8.80;;;;;;;-2.22;93.49;101299.31;110990;1206;107843;-59
2023/03/03 07:56:15;;;;;;;26.60;11.30;;;;;;;-2.18;93.50;101298.50;110804;1215;99037;-59
2023/03/03 07:58:42;;;;;;;30.20;10.80;;;;;;;-2.14;93.74;101299.28;110894;1209;138961;-60
2023/03/03 08:01:38;;;;;;;27.20;10.70;;;;;;;-2.14;93.84;101301.57;111154;1206;99091;-60
2023/03/03 08:04:12;;;;;;;28.10;9.90;;;;;;;-2.13;93.75;101300.89;110910;1209;138993;-60
2023/03/03 08:06:45;;;;;;;28.30;10.90;;;;;;;-2.08;93.94;101303.08;110947;1209;107769;-60
2023/03/03 08:09:22;;;;;;;40.20;12.80;;;;;;;-1.98;94.01;101304.14;110941;1206;139268;-57
2023/03/03 08:12:08;;;;;;;36.30;11.90;;;;;;;-1.87;94.10;101300.30;110997;1208;99448;-58
2023/03/03 08:14:36;;;;;;;31.00;11.00;;;;;;;-1.78;94.10;101300.45;111127;1209;113237;-58
2023/03/03 08:17:14;;;;;;;33.90;13.30;;;;;;;-1.74;93.92;101305.09;111051;1209;139611;-58
2023/03/03 08:19:40;;;;;;;30.90;12.60;;;;;;;-1.74;93.56;101300.36;110991;1208;107778;-58
2023/03/03 08:22:17;;;;;;;31.70;12.00;;;;;;;-1.74;93.93;101296.66;110578;1209;140557;-58
2023/03/03 08:24:42;;;;;;;36.00;12.50;;;;;;;-1.72;93.98;101297.59;110728;1206;99439;-59
2023/03/03 08:27:07;;;;;;;31.60;11.70;;;;;;;-1.69;93.96;101306.23;110775;1221;139766;-58
2023/03/03 08:29:33;;;;;;;34.80;13.40;;;;;;;-1.65;93.94;101314.70;111165;1208;98955;-59
2023/03/03 08:31:58;;;;;;;27.40;10.30;;;;;;;-1.60;94.05;101309.52;111088;1208;98935;-59
2023/03/03 08:34:23;;;;;;;39.30;13.70;;;;;;;-1.58;93.93;101314.29;110992;1209;138978;-59
2023/03/03 08:36:49;;;;;;;34.90;13.10;;;;;;;-1.54;93.99;101320.84;111018;1210;99023;-60
2023/03/03 08:39:15;;;;;;;43.50;14.60;;;;;;;-1.57;93.93;101317.63;110911;1206;140937;-58
2023/03/03 08:41:42;;;;;;;38.00;14.20;;;;;;;-1.60;93.75;101316.02;111048;1212;99179;-58
2023/03/03 08:44:08;;;;;;;41.40;15.40;;;;;;;-1.64;93.93;101307.19;110951;1222;113406;-58
2023/03/03 08:46:33;;;;;;;31.90;10.30;;;;;;;-1.59;93.92;101306.04;110978;1212;139550;-58
2023/03/03 08:48:59;;;;;;;36.90;12.60;;;;;;;-1.56;93.90;101308.20;111061;1206;98935;-58
2023/03/03 08:51:25;;;;;;;33.60;11.90;;;;;;;-1.49;93.99;101302.00;110923;1205;139687;-58
2023/03/03 08:53:50;;;;;;;31.90;12.50;;;;;;;-1.47;93.79;101300.27;111000;1212;98985;-59
2023/03/03 08:56:15;;;;;;;37.50;14.60;;;;;;;-1.41;93.89;101300.54;111033;1206;99034;-59
2023/03/03 08:58:46;;;;;;;40.00;13.10;;;;;;;-1.37;93.92;101300.79;110872;1211;139042;-58
2023/03/03 09:01:17;;;;;;;36.50;14.10;;;;;;;-1.36;93.88;101294.31;111086;1209;101011;-58
2023/03/03 09:03:42;;;;;;;34.80;13.60;;;;;;;-1.33;93.76;101297.17;110953;1210;139592;-61
2023/03/03 09:06:08;;;;;;;47.60;14.10;;;;;;;-1.38;93.71;101294.81;111130;1208;97802;-60
2023/03/03 09:08:34;;;;;;;36.70;13.00;;;;;;;-1.44;93.58;101292.43;111218;1206;98986;-61
2023/03/03 09:11:01;;;;;;;39.20;13.80;;;;;;;-1.44;93.92;101294.54;111046;1206;139017;-60
2023/03/03 09:13:28;;;;;;;44.00;16.60;;;;;;;-1.48;94.07;101294.48;111181;1208;100429;-60
2023/03/03 09:15:57;;;;;;;52.50;16.80;;;;;;;-1.48;93.93;101298.51;110831;1209;140524;-58
2023/03/03 09:18:34;;;;;;;45.20;15.60;;;;;;;-1.46;93.87;101307.13;111179;1206;107878;-61
2023/03/03 09:21:00;;;;;;;42.30;14.20;;;;;;;-1.43;94.10;101309.97;110877;1209;139955;-61
2023/03/03 09:23:35;;;;;;;37.70;14.20;;;;;;;-1.46;93.82;101304.51;111186;1205;98184;-61
2023/03/03 09:26:29;;;;;;;36.90;11.50;;;;;;;-1.40;94.05;101299.52;110988;1209;112703;-61
2023/03/03 09:29:07;;;;;;;34.80;12.80;;;;;;;-1.29;94.04;101305.29;110230;1208;139751;-62
2023/03/03 09:31:50;;;;;;;34.90;13.40;;;;;;;-1.24;94.19;101303.27;110684;1206;109775;-62
2023/03/03 09:34:21;;;;;;;36.40;15.00;;;;;;;-1.21;93.94;101303.48;110816;1219;140895;-62
2023/03/03 09:36:48;;;;;;;31.20;13.20;;;;;;;-1.16;94.08;101299.00;111356;1210;98958;-63
2023/03/03 09:39:18;;;;;;;43.40;14.90;;;;;;;-1.13;94.00;101305.88;110720;1209;140302;-62
2023/03/03 09:41:46;;;;;;;31.10;10.80;;;;;;;-1.11;93.95;101297.50;110984;1206;100585;-62
2023/03/03 09:44:48;;;;;;;38.40;13.60;;;;;;;-1.09;94.09;101300.68;110999;1208;107701;-63
2023/03/03 09:47:39;;;;;;;43.70;13.30;;;;;;;-1.07;94.14;101304.05;110964;1206;99057;-69
2023/03/03 09:50:29;;;;;;;46.10;14.50;;;;;;;-1.01;94.11;101302.73;111019;1208;99009;-62
2023/03/03 09:53:16;;;;;;;33.40;11.50;;;;;;;-0.97;94.07;101297.34;110914;1206;140255;-61
2023/03/03 09:55:41;;;;;;;43.80;14.90;;;;;;;-0.96;94.05;101300.33;111075;1206;100119;-62
2023/03/03 09:58:31;;;;;;;41.60;14.00;;;;;;;-0.90;94.30;101299.20;110897;1208;140319;-62
2023/03/03 10:01:04;;;;;;;43.80;11.70;;;;;;;-0.88;94.01;101296.94;110990;1208;99043;-61
2023/03/03 10:03:38;;;;;;;41.10;13.40;;;;;;;-0.87;93.93;101292.57;110808;1209;139090;-62
2023/03/03 10:06:19;;;;;;;51.00;15.20;;;;;;;-0.88;94.05;101293.96;110906;1209;112667;-62
2023/03/03 10:09:05;;;;;;;36.60;12.30;;;;;;;-0.84;94.09;101294.01;110931;1209;98961;-61
2023/03/03 10:11:51;;;;;;;40.80;14.50;;;;;;;-0.81;94.12;101294.92;110985;1206;110161;-62
2023/03/03 10:14:34;;;;;;;35.40;11.00;;;;;;;-0.75;94.29;101291.33;111022;1208;98928;-61
2023/03/03 10:17:05;;;;;;;41.70;14.20;;;;;;;-0.70;94.05;101286.30;110802;1209;140703;-61
2023/03/03 10:19:39;;;;;;;39.80;12.90;;;;;;;-0.66;94.27;101294.42;110974;1208;112834;-62
2023/03/03 10:22:11;;;;;;;36.80;13.40;;;;;;;-0.62;94.08;101292.19;111035;1206;140331;-62
2023/03/03 10:25:14;;;;;;;42.90;12.90;;;;;;;-0.61;93.94;101293.79;110943;1206;108047;-62
2023/03/03 10:27:54;;;;;;;51.20;16.60;;;;;;;-0.63;94.03;101286.38;110789;1221;140757;-62
2023/03/03 10:30:27;;;;;;;48.80;18.00;;;;;;;-0.63;94.02;101290.42;110950;1206;99374;-62
2023/03/03 10:33:43;;;;;;;53.50;15.70;;;;;;;-0.61;94.12;101296.59;111039;1208;112987;-63
2023/03/03 10:36:25;;;;;;;45.80;14.40;;;;;;;-0.65;93.97;101303.73;110866;1212;100011;-61
2023/03/03 10:38:57;;;;;;;44.70;16.30;;;;;;;-0.66;93.95;101297.59;110837;1206;107806;-63
2023/03/03 10:41:33;;;;;;;45.00;15.40;;;;;;;-0.63;94.06;101298.50;110807;1206;98935;-63
2023/03/03 10:44:24;;;;;;;45.60;15.10;;;;;;;-0.59;93.91;101299.24;110847;1210;99499;-65
2023/03/03 10:47:31;;;;;;;46.90;14.60;;;;;;;-0.56;94.16;101296.83;110876;1211;139313;-63
2023/03/03 10:50:15;;;;;;;41.20;12.70;;;;;;;-0.50;94.18;101298.48;110957;1208;100066;-62
2023/03/03 10:52:47;;;;;;;33.70;12.60;;;;;;;-0.44;94.12;101301.02;110931;1208;141316;-63
2023/03/03 10:55:20;;;;;;;55.60;14.50;;;;;;;-0.46;94.09;101301.70;111089;1208;99031;-63
2023/03/03 10:57:58;;;;;;;46.00;15.40;;;;;;;-0.48;93.89;101300.09;110857;1206;140549;-62
2023/03/03 11:00:30;;;;;;;50.10;15.60;;;;;;;-0.48;93.86;101292.20;110918;1206;113583;-62
2023/03/03 11:03:05;;;;;;;49.90;16.00;;;;;;;-0.46;93.79;101284.14;110928;1206;99865;-63
2023/03/03 11:05:53;;;;;;;52.30;15.60;;;;;;;-0.44;93.93;101278.02;110907;1209;107327;-62
2023/03/03 11:08:26;;;;;;;45.40;15.60;;;;;;;-0.40;93.92;101281.23;110877;1209;98973;-62
2023/03/03 11:11:09;;;;;;;43.90;15.30;;;;;;;-0.39;93.89;101274.91;110952;1206;138869;-62